Time;durP1;ratioP1;P1;durP2;ratioP2;P2;SDS_P1;SDS_P2;PMS_P1;PMS_P2;Temp;Humidity;BMP_temperature;BMP_pressure;BME280_temperature;BME280_humidity;BME280_pressure;Samples;Min_cycle;Max_cycle;Signal;HPM_P1;HPM_P2
2022/06/13 00:01:13;;;;;;;;;;;;;;;25.11;54.64;99411.34;7310772;19;129102;-37
2022/06/13 00:03:38;;;;;;;;;;;;;;;25.12;54.44;99413.81;7307779;19;129958;-40
2022/06/13 00:06:04;;;;;;;;;;;;;;;24.98;50.80;99411.03;7312357;19;129703;-40
2022/06/13 00:08:29;;;;;;;;;;;;;;;24.48;49.08;99409.38;7307562;19;129786;-38
2022/06/13 00:10:54;;;;;;;;;;;;;;;24.42;48.25;99425.78;7310338;19;129722;-39
2022/06/13 00:13:20;;;;;;;;;;;;;;;24.53;52.84;99410.69;7309436;19;129212;-37
2022/06/13 00:15:45;;;;;;;;;;;;;;;24.67;54.04;99386.38;7309973;19;129501;-37
2022/06/13 00:18:10;;;;;;;;;;;;;;;24.91;53.83;99400.34;7307946;19;130208;-39
2022/06/13 00:20:35;;;;;;;;;;;;;;;25.02;53.33;99401.84;7308100;19;129488;-39
2022/06/13 00:23:01;;;;;;;;;;;;;;;25.07;54.06;99407.44;7309031;19;130126;-39
2022/06/13 00:25:26;;;;;;;;;;;;;;;25.12;53.49;99399.84;7308778;19;130304;-37
2022/06/13 00:27:51;;;;;;;;;;;;;;;25.13;53.77;99398.84;7306296;19;130689;-39
2022/06/13 00:30:16;;;;;;;;;;;;;;;25.13;54.33;99396.22;7310217;19;129167;-38
2022/06/13 00:32:41;;;;;;;;;;;;;;;25.15;54.07;99391.63;7309086;19;129334;-39
2022/06/13 00:35:07;;;;;;;;;;;;;;;25.17;54.07;99389.66;7308834;19;129883;-39
2022/06/13 00:37:32;;;;;;;;;;;;;;;25.18;53.83;99386.03;7307706;19;131012;-40
2022/06/13 00:39:58;;;;;;;;;;;;;;;25.16;54.34;99394.09;7308372;19;130024;-39
2022/06/13 00:42:24;;;;;;;;;;;;;;;25.15;54.16;99391.63;7310349;19;130622;-39
2022/06/13 00:45:08;;;;;;;;;;;;;;;24.90;50.17;99387.38;7307595;19;130566;-39
2022/06/13 00:47:33;;;;;;;;;;;;;;;24.48;49.04;99381.44;7313026;19;130577;-40
2022/06/13 00:50:00;;;;;;;;;;;;;;;24.35;48.68;99372.22;7315172;19;129843;-37
2022/06/13 00:52:34;;;;;;;;;;;;;;;24.58;52.86;99385.53;7315279;19;130038;-39
2022/06/13 00:54:59;;;;;;;;;;;;;;;24.82;53.44;99387.38;7316188;19;129816;-39
2022/06/13 00:57:25;;;;;;;;;;;;;;;24.98;53.46;99379.47;7316121;19;130303;-39
2022/06/13 00:59:52;;;;;;;;;;;;;;;25.08;53.42;99380.94;7316391;19;131416;-39
2022/06/13 01:02:18;;;;;;;;;;;;;;;25.12;53.59;99386.72;7317448;19;129358;-39
2022/06/13 01:04:45;;;;;;;;;;;;;;;25.14;53.84;99390.00;7317021;19;130159;-37
2022/06/13 01:07:10;;;;;;;;;;;;;;;25.17;54.22;99384.41;7314021;19;133219;-38
2022/06/13 01:12:24;;;;;;;;;;;;;;;25.17;53.87;99379.94;7312151;19;129906;-39
2022/06/13 01:14:49;;;;;;;;;;;;;;;25.17;53.89;99368.59;7317252;19;130265;-39
2022/06/13 01:17:17;;;;;;;;;;;;;;;25.10;54.41;99357.09;7314831;19;130301;-39
2022/06/13 01:19:42;;;;;;;;;;;;;;;25.16;53.56;99366.94;7315719;19;129002;-39
2022/06/13 01:22:24;;;;;;;;;;;;;;;25.18;54.52;99364.97;7316234;19;129689;-39
2022/06/13 01:25:08;;;;;;;;;;;;;;;24.79;49.62;99374.56;7315860;19;129450;-40
2022/06/13 01:27:57;;;;;;;;;;;;;;;24.37;48.92;99354.50;7315276;19;130366;-39
2022/06/13 01:30:28;;;;;;;;;;;;;;;24.41;48.13;99368.94;7316692;19;128895;-38
2022/06/13 01:33:16;;;;;;;;;;;;;;;24.66;53.27;99367.13;7315692;19;129402;-39
2022/06/13 01:36:05;;;;;;;;;;;;;;;24.90;53.50;99355.81;7315346;19;129601;-40
2022/06/13 01:38:30;;;;;;;;;;;;;;;25.04;53.93;99348.06;7312665;19;130267;-38
2022/06/13 01:40:55;;;;;;;;;;;;;;;25.11;53.64;99341.16;7315010;19;128989;-39
2022/06/13 01:43:45;;;;;;;;;;;;;;;25.13;52.96;99338.34;7313895;19;129533;-37
2022/06/13 01:46:17;;;;;;;;;;;;;;;25.17;53.59;99337.84;7315791;19;130125;-39
2022/06/13 01:48:45;;;;;;;;;;;;;;;25.16;54.06;99330.09;7311086;19;129962;-39
2022/06/13 01:51:26;;;;;;;;;;;;;;;25.18;54.41;99328.97;7313741;19;129339;-39
2022/06/13 01:53:51;;;;;;;;;;;;;;;25.20;53.67;99337.53;7315498;19;128964;-40
2022/06/13 01:56:20;;;;;;;;;;;;;;;25.20;54.13;99349.84;7313402;19;131023;-38
2022/06/13 01:58:46;;;;;;;;;;;;;;;25.21;53.96;99356.75;7309631;19;130430;-39
2022/06/13 02:01:28;;;;;;;;;;;;;;;25.20;54.69;99369.09;7313689;19;129111;-38
2022/06/13 02:03:57;;;;;;;;;;;;;;;24.90;50.35;99368.97;7314642;19;129044;-38
2022/06/13 02:06:27;;;;;;;;;;;;;;;24.53;48.92;99363.38;7313632;19;129595;-38
2022/06/13 02:08:56;;;;;;;;;;;;;;;24.45;48.14;99366.81;7312015;19;130779;-39
2022/06/13 02:11:24;;;;;;;;;;;;;;;24.60;52.60;99364.34;7314119;19;129133;-38
2022/06/13 02:14:06;;;;;;;;;;;;;;;24.83;54.04;99363.56;7314530;19;129989;-39
2022/06/13 02:16:33;;;;;;;;;;;;;;;24.95;54.09;99358.78;7313224;19;131543;-39
2022/06/13 02:19:03;;;;;;;;;;;;;;;25.10;53.78;99363.19;7310069;19;130418;-38
2022/06/13 02:21:33;;;;;;;;;;;;;;;25.15;53.96;99366.16;7314280;19;129134;-39
2022/06/13 02:23:59;;;;;;;;;;;;;;;25.18;53.73;99370.25;7314405;19;129007;-38
2022/06/13 02:26:28;;;;;;;;;;;;;;;25.20;54.33;99365.63;7313897;19;130437;-38
2022/06/13 02:28:56;;;;;;;;;;;;;;;25.22;54.04;99372.34;7310085;19;130283;-39
2022/06/13 02:31:27;;;;;;;;;;;;;;;25.23;53.14;99373.19;7313332;19;129146;-40
2022/06/13 02:34:01;;;;;;;;;;;;;;;25.24;54.35;99374.81;7314432;19;129181;-38
2022/06/13 02:36:30;;;;;;;;;;;;;;;25.20;53.74;99369.09;7313114;19;129955;-38
2022/06/13 02:39:06;;;;;;;;;;;;;;;25.23;54.17;99373.19;7310440;19;130331;-38
2022/06/13 02:41:37;;;;;;;;;;;;;;;25.23;53.84;99367.91;7311707;19;129532;-39
2022/06/13 02:44:05;;;;;;;;;;;;;;;24.66;48.86;99368.97;7314371;19;128903;-38
2022/06/13 02:46:35;;;;;;;;;;;;;;;24.49;48.88;99373.41;7312237;19;129468;-38
2022/06/13 02:49:04;;;;;;;;;;;;;;;24.45;48.24;99365.03;7311667;19;129618;-37
2022/06/13 02:51:41;;;;;;;;;;;;;;;24.75;53.66;99363.56;7311491;19;129504;-37
2022/06/13 02:54:19;;;;;;;;;;;;;;;24.95;53.49;99364.88;7313469;19;130192;-37
2022/06/13 02:59:51;;;;;;;;;;;;;;;25.17;53.71;99379.94;7310665;19;129111;-40
2022/06/13 03:02:20;;;;;;;;;;;;;;;25.20;53.91;99378.78;7313889;19;129269;-39
2022/06/13 03:04:50;;;;;;;;;;;;;;;25.10;54.26;99384.25;7313792;19;130194;-39
2022/06/13 03:07:15;;;;;;;;;;;;;;;25.21;53.64;99402.31;7310535;19;129114;-39
2022/06/13 03:09:46;;;;;;;;;;;;;;;25.20;53.97;99416.47;7311266;19;130813;-39
2022/06/13 03:12:16;;;;;;;;;;;;;;;25.24;53.68;99420.38;7310779;19;130701;-40
2022/06/13 03:14:42;;;;;;;;;;;;;;;25.25;53.71;99423.84;7312859;19;129243;-39
2022/06/13 03:17:19;;;;;;;;;;;;;;;25.25;54.39;99434.38;7308358;19;129851;-39
2022/06/13 03:19:51;;;;;;;;;;;;;;;25.25;54.11;99432.56;7311481;19;129246;-38
2022/06/13 03:22:16;;;;;;;;;;;;;;;24.80;49.34;99418.28;7310762;19;129050;-38
2022/06/13 03:24:47;;;;;;;;;;;;;;;24.56;49.06;99439.28;7311838;19;129624;-38
2022/06/13 03:27:23;;;;;;;;;;;;;;;24.48;48.03;99428.75;7311262;19;129759;-39
2022/06/13 03:29:55;;;;;;;;;;;;;;;24.66;53.52;99427.59;7311899;19;130572;-39
2022/06/13 03:32:23;;;;;;;;;;;;;;;24.81;53.63;99423.38;7308771;19;129274;-39
2022/06/13 03:34:51;;;;;;;;;;;;;;;25.05;53.69;99422.56;7311436;19;130383;-39
2022/06/13 03:37:45;;;;;;;;;;;;;;;25.16;53.56;99422.19;7311680;19;130704;-39
2022/06/13 03:40:16;;;;;;;;;;;;;;;25.21;53.71;99418.09;7307521;19;131630;-40
2022/06/13 03:42:45;;;;;;;;;;;;;;;25.22;53.43;99427.63;7312774;19;129348;-39
2022/06/13 03:45:18;;;;;;;;;;;;;;;25.24;53.97;99422.19;7310375;19;131033;-38
2022/06/13 03:47:47;;;;;;;;;;;;;;;25.23;53.58;99418.75;7310587;19;129601;-39
2022/06/13 03:50:18;;;;;;;;;;;;;;;25.27;53.77;99427.13;7307719;19;129194;-38
2022/06/13 03:52:47;;;;;;;;;;;;;;;25.26;54.11;99436.00;7309738;19;129660;-39
2022/06/13 03:55:16;;;;;;;;;;;;;;;25.26;54.16;99425.47;7310334;19;129703;-38
2022/06/13 03:57:46;;;;;;;;;;;;;;;25.25;54.10;99424.69;7307384;19;129894;-39
2022/06/13 04:00:16;;;;;;;;;;;;;;;25.24;53.86;99437.97;7311457;19;130450;-39
2022/06/13 04:02:43;;;;;;;;;;;;;;;24.64;48.59;99434.03;7309889;19;129631;-39
2022/06/13 04:05:16;;;;;;;;;;;;;;;24.48;48.59;99435.66;7305425;19;129632;-37
2022/06/13 04:07:42;;;;;;;;;;;;;;;24.45;48.51;99435.97;7307074;19;129960;-39
2022/06/13 04:10:09;;;;;;;;;;;;;;;24.78;53.39;99430.75;7307458;19;131686;-39
2022/06/13 04:12:53;;;;;;;;;;;;;;;24.97;53.45;99433.91;7308928;19;129314;-39
2022/06/13 04:15:20;;;;;;;;;;;;;;;25.03;53.67;99414.00;7308809;19;129040;-38
2022/06/13 04:17:53;;;;;;;;;;;;;;;25.18;53.84;99438.66;7308933;19;130163;-37
2022/06/13 04:20:22;;;;;;;;;;;;;;;25.20;53.23;99447.19;7309951;19;130349;-39
2022/06/13 04:22:57;;;;;;;;;;;;;;;25.25;53.43;99452.78;7314379;19;129021;-39
2022/06/13 04:25:29;;;;;;;;;;;;;;;25.25;53.50;99456.25;7316155;19;129422;-39
2022/06/13 04:28:23;;;;;;;;;;;;;;;25.25;53.54;99453.63;7312798;19;130529;-39
2022/06/13 04:30:50;;;;;;;;;;;;;;;25.26;53.66;99447.34;7316741;19;130630;-39
2022/06/13 04:33:19;;;;;;;;;;;;;;;25.27;53.79;99456.88;7309458;19;129952;-40
2022/06/13 04:35:48;;;;;;;;;;;;;;;25.26;53.94;99457.88;7312773;19;129369;-39
2022/06/13 04:38:15;;;;;;;;;;;;;;;25.27;53.59;99469.25;7310303;19;130470;-38
2022/06/13 04:40:42;;;;;;;;;;;;;;;25.26;54.34;99465.78;7312547;19;129963;-39
2022/06/13 04:43:09;;;;;;;;;;;;;;;24.65;48.55;99472.47;7314244;19;129003;-39
2022/06/13 04:45:41;;;;;;;;;;;;;;;24.40;48.58;99453.19;7314939;19;130078;-39
2022/06/13 04:48:08;;;;;;;;;;;;;;;24.64;52.44;99470.84;7300817;19;131367;-36
2022/06/13 04:50:36;;;;;;;;;;;;;;;24.90;53.92;99466.28;7308767;19;131065;-39
2022/06/13 04:53:03;;;;;;;;;;;;;;;25.05;53.23;99454.94;7313415;19;129574;-38
2022/06/13 04:55:32;;;;;;;;;;;;;;;25.15;53.21;99449.50;7315370;19;130071;-38
2022/06/13 04:57:58;;;;;;;;;;;;;;;25.19;53.29;99462.16;7313712;19;129987;-39
2022/06/13 05:00:23;;;;;;;;;;;;;;;25.24;53.64;99451.13;7313197;19;131893;-38
2022/06/13 05:02:50;;;;;;;;;;;;;;;25.28;53.56;99444.56;7314214;19;129672;-39
2022/06/13 05:05:21;;;;;;;;;;;;;;;25.30;53.27;99447.84;7312681;19;129200;-36
2022/06/13 05:07:47;;;;;;;;;;;;;;;25.29;53.24;99452.28;7313202;19;129736;-37
2022/06/13 05:10:16;;;;;;;;;;;;;;;25.28;53.48;99449.81;7314313;19;129450;-37
2022/06/13 05:12:43;;;;;;;;;;;;;;;25.25;53.51;99451.00;7311961;19;130309;-37
2022/06/13 05:15:15;;;;;;;;;;;;;;;25.20;53.56;99447.19;7313151;19;131793;-37
2022/06/13 05:17:52;;;;;;;;;;;;;;;25.20;53.68;99455.94;7314926;19;130345;-36
2022/06/13 05:20:34;;;;;;;;;;;;;;;25.11;52.99;99441.13;7316628;19;132182;-37
2022/06/13 05:23:26;;;;;;;;;;;;;;;25.23;53.93;99452.13;7315625;19;129496;-37
2022/06/13 05:25:55;;;;;;;;;;;;;;;24.74;48.64;99440.81;7314216;19;129035;-36
2022/06/13 05:28:22;;;;;;;;;;;;;;;24.56;47.83;99462.94;7312450;19;130540;-36
2022/06/13 05:30:52;;;;;;;;;;;;;;;24.64;51.57;99452.44;7315570;19;129908;-36
2022/06/13 05:33:19;;;;;;;;;;;;;;;24.91;53.32;99457.38;7314492;19;129485;-37
2022/06/13 05:35:45;;;;;;;;;;;;;;;25.04;53.20;99466.44;7316979;19;128995;-37
2022/06/13 05:38:15;;;;;;;;;;;;;;;25.14;52.78;99468.94;7313900;19;130094;-37
2022/06/13 05:40:41;;;;;;;;;;;;;;;25.18;53.09;99476.31;7316067;19;129639;-37
2022/06/13 05:43:07;;;;;;;;;;;;;;;25.19;53.77;99472.69;7317104;19;129408;-37
2022/06/13 05:45:32;;;;;;;;;;;;;;;25.20;53.66;99479.59;7314108;19;129010;-37
2022/06/13 05:47:59;;;;;;;;;;;;;;;25.23;53.21;99483.69;7315383;19;129311;-36
2022/06/13 05:50:29;;;;;;;;;;;;;;;25.18;53.10;99470.22;7313192;19;130848;-37
2022/06/13 05:52:54;;;;;;;;;;;;;;;25.20;53.74;99473.50;7314483;19;129127;-36
2022/06/13 05:55:20;;;;;;;;;;;;;;;25.21;53.76;99478.59;7315670;19;130004;-36
2022/06/13 05:57:45;;;;;;;;;;;;;;;25.23;53.68;99478.44;7314920;19;130385;-37
2022/06/13 06:00:22;;;;;;;;;;;;;;;25.14;53.46;99463.66;7314335;19;130274;-37
2022/06/13 06:02:48;;;;;;;;;;;;;;;25.04;50.28;99470.91;7314195;19;129985;-37
2022/06/13 06:05:13;;;;;;;;;;;;;;;24.58;48.21;99482.00;7315917;19;129024;-37
2022/06/13 06:07:38;;;;;;;;;;;;;;;24.51;48.25;99487.06;7311721;19;130504;-37
2022/06/13 06:10:04;;;;;;;;;;;;;;;24.68;52.62;99487.94;7309703;19;130820;-36
2022/06/13 06:12:29;;;;;;;;;;;;;;;24.88;52.94;99481.41;7311660;19;129124;-37
2022/06/13 06:14:55;;;;;;;;;;;;;;;25.04;53.31;99486.69;7311123;19;130521;-36
2022/06/13 06:17:20;;;;;;;;;;;;;;;25.14;53.07;99500.50;7313937;19;130152;-37
2022/06/13 06:19:45;;;;;;;;;;;;;;;25.14;53.45;99496.03;7310469;19;129793;-37
2022/06/13 06:22:10;;;;;;;;;;;;;;;25.14;53.85;99505.75;7311070;19;129071;-37
2022/06/13 06:24:36;;;;;;;;;;;;;;;25.18;53.30;99501.78;7313104;19;129512;-37
2022/06/13 06:27:01;;;;;;;;;;;;;;;25.20;53.98;99507.72;7311184;19;131580;-36
2022/06/13 06:29:27;;;;;;;;;;;;;;;25.23;54.11;99504.75;7311420;19;129755;-36
2022/06/13 06:31:52;;;;;;;;;;;;;;;25.24;53.80;99511.66;7310160;19;129042;-37
2022/06/13 06:34:17;;;;;;;;;;;;;;;25.25;54.01;99521.22;7311248;19;129815;-37
2022/06/13 06:36:43;;;;;;;;;;;;;;;25.17;54.01;99511.50;7311894;19;131062;-37
2022/06/13 06:39:08;;;;;;;;;;;;;;;25.25;54.19;99529.09;7309666;19;129179;-37
2022/06/13 06:41:34;;;;;;;;;;;;;;;25.08;50.99;99537.97;7311964;19;129060;-37
2022/06/13 06:43:59;;;;;;;;;;;;;;;24.56;48.25;99531.28;7310579;19;129342;-37
2022/06/13 06:46:24;;;;;;;;;;;;;;;24.47;48.52;99533.06;7311374;19;129005;-37
2022/06/13 06:48:51;;;;;;;;;;;;;;;24.45;49.72;99541.09;7308614;19;129133;-37
2022/06/13 06:51:17;;;;;;;;;;;;;;;24.81;54.06;99543.53;7309010;19;128981;-36
2022/06/13 07:01:54;;;;;;;;;;;;;;;25.17;53.42;99553.59;7311207;19;129052;-36
2022/06/13 07:04:20;;;;;;;;;;;;;;;25.21;54.02;99559.34;7314502;19;129832;-37
2022/06/13 07:06:45;;;;;;;;;;;;;;;25.23;53.64;99557.38;7311810;19;130202;-37
2022/06/13 07:09:10;;;;;;;;;;;;;;;25.20;53.67;99569.06;7310211;19;131107;-36
2022/06/13 07:11:53;;;;;;;;;;;;;;;25.23;54.29;99579.25;7308909;19;129123;-36
2022/06/13 07:14:20;;;;;;;;;;;;;;;25.24;53.77;99582.69;7313448;19;130068;-36
2022/06/13 07:16:45;;;;;;;;;;;;;;;25.23;54.42;99588.97;7312573;19;131330;-37
2022/06/13 07:19:11;;;;;;;;;;;;;;;25.24;53.72;99590.59;7309970;19;130276;-37
2022/06/13 07:21:36;;;;;;;;;;;;;;;24.99;50.57;99589.75;7312441;19;129675;-37
2022/06/13 07:24:01;;;;;;;;;;;;;;;24.53;47.99;99589.44;7311857;19;129469;-36
2022/06/13 07:26:26;;;;;;;;;;;;;;;24.45;48.32;99590.19;7314005;19;129889;-37
2022/06/13 07:28:52;;;;;;;;;;;;;;;24.52;51.62;99580.72;7307713;19;130997;-37
2022/06/13 07:31:19;;;;;;;;;;;;;;;24.82;53.46;99579.34;7311381;19;129673;-37
2022/06/13 07:33:44;;;;;;;;;;;;;;;24.97;53.85;99583.00;7308974;19;130086;-37
2022/06/13 07:36:10;;;;;;;;;;;;;;;25.04;53.27;99576.13;7312231;19;129660;-37
2022/06/13 07:38:35;;;;;;;;;;;;;;;25.11;53.56;99585.81;7309421;19;129848;-36
2022/06/13 07:41:01;;;;;;;;;;;;;;;25.16;53.85;99591.41;7307514;19;130116;-37
2022/06/13 07:43:28;;;;;;;;;;;;;;;25.18;53.77;99591.25;7311883;19;130214;-37
2022/06/13 07:45:53;;;;;;;;;;;;;;;25.20;53.74;99584.03;7310145;19;129125;-37
2022/06/13 07:48:19;;;;;;;;;;;;;;;25.22;53.71;99584.69;7308687;19;129543;-37
2022/06/13 07:50:44;;;;;;;;;;;;;;;25.22;53.59;99587.31;7308471;19;128909;-37
2022/06/13 07:53:09;;;;;;;;;;;;;;;25.23;53.88;99588.97;7307273;19;130017;-36
2022/06/13 07:55:35;;;;;;;;;;;;;;;25.23;53.86;99578.44;7301645;19;129222;-36
2022/06/13 07:58:01;;;;;;;;;;;;;;;25.24;54.26;99574.81;7305521;19;130262;-37
2022/06/13 08:00:30;;;;;;;;;;;;;;;25.21;54.38;99583.88;7311327;19;128807;-37
2022/06/13 08:02:55;;;;;;;;;;;;;;;24.74;48.67;99587.22;7311022;19;129093;-37
2022/06/13 08:05:20;;;;;;;;;;;;;;;24.48;48.49;99581.19;7309801;19;131123;-37
2022/06/13 08:07:46;;;;;;;;;;;;;;;24.32;48.27;99563.53;7310415;19;130567;-37
2022/06/13 08:10:11;;;;;;;;;;;;;;;24.60;52.93;99585.16;7311611;19;128988;-37
2022/06/13 08:12:38;;;;;;;;;;;;;;;24.84;53.42;99587.91;7310124;19;128819;-36
2022/06/13 08:15:03;;;;;;;;;;;;;;;24.96;53.23;99594.50;7311775;19;129220;-37
2022/06/13 08:17:28;;;;;;;;;;;;;;;25.04;53.85;99589.28;7309211;19;129139;-37
2022/06/13 08:19:54;;;;;;;;;;;;;;;25.10;53.36;99584.19;7309084;19;129751;-37
2022/06/13 08:22:20;;;;;;;;;;;;;;;25.16;54.25;99578.25;7309573;19;129914;-37
2022/06/13 08:24:45;;;;;;;;;;;;;;;25.19;53.46;99577.09;7308831;19;130850;-37
2022/06/13 08:27:10;;;;;;;;;;;;;;;25.18;53.74;99570.22;7310838;19;131549;-37
2022/06/13 08:29:36;;;;;;;;;;;;;;;25.08;53.63;99559.00;7304420;19;129438;-37
2022/06/13 08:32:01;;;;;;;;;;;;;;;25.19;54.22;99579.72;7308899;19;130261;-37
2022/06/13 08:34:27;;;;;;;;;;;;;;;25.21;54.35;99575.13;7309872;19;131192;-37
2022/06/13 08:36:53;;;;;;;;;;;;;;;25.18;54.52;99570.22;7309276;19;129304;-37
2022/06/13 08:39:19;;;;;;;;;;;;;;;25.19;53.82;99570.03;7306523;19;129202;-37
2022/06/13 08:41:56;;;;;;;;;;;;;;;25.22;53.96;99576.81;7307995;19;129344;-37
2022/06/13 08:44:21;;;;;;;;;;;;;;;24.72;48.84;99568.16;7309178;19;129515;-37
2022/06/13 08:46:46;;;;;;;;;;;;;;;24.49;49.16;99579.22;7307276;19;129352;-37
2022/06/13 08:49:22;;;;;;;;;;;;;;;24.44;48.15;99576.22;7306495;19;129978;-37
2022/06/13 08:52:08;;;;;;;;;;;;;;;24.61;52.77;99585.00;7309156;19;129091;-37
2022/06/13 08:54:34;;;;;;;;;;;;;;;24.80;54.16;99570.78;7307323;19;129640;-36
2022/06/13 08:57:07;;;;;;;;;;;;;;;24.97;53.37;99589.09;7309252;19;130190;-37
2022/06/13 08:59:51;;;;;;;;;;;;;;;25.03;53.50;99588.44;7303877;19;130140;-36
2022/06/13 09:02:22;;;;;;;;;;;;;;;25.10;54.19;99586.81;7308131;19;129128;-36
2022/06/13 09:04:53;;;;;;;;;;;;;;;25.12;54.34;99589.28;7307247;19;129806;-37
2022/06/13 09:07:24;;;;;;;;;;;;;;;25.12;54.41;99590.09;7311589;19;130270;-37
2022/06/13 09:09:54;;;;;;;;;;;;;;;25.14;53.87;99596.00;7313291;19;129469;-36
2022/06/13 09:12:19;;;;;;;;;;;;;;;25.16;54.02;99603.75;7313734;19;129810;-37
2022/06/13 09:14:48;;;;;;;;;;;;;;;25.16;54.43;99599.31;7314895;19;130100;-36
2022/06/13 09:17:23;;;;;;;;;;;;;;;25.16;54.50;99593.22;7313137;19;131030;-37
2022/06/13 09:20:07;;;;;;;;;;;;;;;25.16;53.95;99599.31;7314377;19;130552;-37
2022/06/13 09:22:55;;;;;;;;;;;;;;;25.15;53.91;99592.41;7313987;19;129677;-37
2022/06/13 09:25:26;;;;;;;;;;;;;;;24.75;49.01;99586.22;7315146;19;130314;-37
2022/06/13 09:28:00;;;;;;;;;;;;;;;24.48;48.88;99609.13;7314841;19;130914;-37
2022/06/13 09:30:34;;;;;;;;;;;;;;;24.44;48.51;99607.78;7314955;19;130450;-37
2022/06/13 09:33:05;;;;;;;;;;;;;;;24.65;53.34;99609.16;7315681;19;129529;-36
2022/06/13 09:35:36;;;;;;;;;;;;;;;24.87;54.00;99608.63;7314385;19;130568;-36
2022/06/13 09:38:15;;;;;;;;;;;;;;;24.96;53.87;99605.00;7314372;19;130287;-37
2022/06/13 09:40:52;;;;;;;;;;;;;;;25.04;53.87;99612.94;7316186;19;128993;-36
2022/06/13 09:43:36;;;;;;;;;;;;;;;25.08;54.01;99606.38;7316462;19;129093;-37
2022/06/13 09:46:22;;;;;;;;;;;;;;;25.10;53.68;99614.94;7313916;19;129548;-37
2022/06/13 09:49:06;;;;;;;;;;;;;;;25.11;54.23;99611.31;7311559;19;129568;-37
2022/06/13 09:51:37;;;;;;;;;;;;;;;25.11;53.84;99598.16;7313554;19;129506;-37
2022/06/13 09:54:14;;;;;;;;;;;;;;;25.12;54.14;99599.81;7313338;19;129022;-37
2022/06/13 09:56:40;;;;;;;;;;;;;;;25.12;53.81;99597.19;7314666;19;130589;-36
2022/06/13 09:59:08;;;;;;;;;;;;;;;25.14;54.41;99596.00;7312256;19;129962;-37
2022/06/13 10:01:33;;;;;;;;;;;;;;;25.12;54.68;99587.44;7314141;19;129406;-37
2022/06/13 10:04:07;;;;;;;;;;;;;;;25.12;54.45;99589.28;7316056;19;129078;-37
2022/06/13 10:06:32;;;;;;;;;;;;;;;24.49;48.72;99587.09;7314837;19;129357;-36
2022/06/13 10:09:16;;;;;;;;;;;;;;;24.31;48.81;99581.09;7314049;19;130311;-36
2022/06/13 10:11:56;;;;;;;;;;;;;;;24.42;48.75;99596.63;7312318;19;129977;-37
2022/06/13 10:14:40;;;;;;;;;;;;;;;24.79;53.58;99592.84;7313917;19;129093;-37
2022/06/13 10:17:17;;;;;;;;;;;;;;;24.93;54.14;99597.44;7313540;19;129535;-37
2022/06/13 10:19:42;;;;;;;;;;;;;;;25.00;53.89;99590.56;7312192;19;129484;-37
2022/06/13 10:22:17;;;;;;;;;;;;;;;25.05;53.73;99585.66;7315109;19;129000;-37
2022/06/13 10:24:54;;;;;;;;;;;;;;;25.08;53.97;99585.31;7314572;19;129121;-37
2022/06/13 10:27:30;;;;;;;;;;;;;;;25.11;54.39;99603.41;7313667;19;130325;-37
2022/06/13 10:30:08;;;;;;;;;;;;;;;25.12;53.95;99597.19;7313943;19;130667;-36
2022/06/13 10:32:52;;;;;;;;;;;;;;;25.12;54.15;99589.28;7313879;19;129620;-36
2022/06/13 10:35:18;;;;;;;;;;;;;;;25.12;54.31;99586.66;7314573;19;130874;-37
2022/06/13 10:37:43;;;;;;;;;;;;;;;25.13;54.20;99594.38;7312586;19;130167;-36
2022/06/13 10:40:09;;;;;;;;;;;;;;;25.14;54.17;99589.94;7312943;19;129097;-36
2022/06/13 10:42:35;;;;;;;;;;;;;;;25.14;54.72;99600.47;7312425;19;129878;-37
2022/06/13 10:45:03;;;;;;;;;;;;;;;24.61;49.44;99599.97;7315581;19;129624;-37
2022/06/13 10:47:32;;;;;;;;;;;;;;;24.46;49.09;99594.50;7312794;19;130188;-37
2022/06/13 10:50:01;;;;;;;;;;;;;;;24.42;49.02;99599.25;7314373;19;129647;-36
2022/06/13 10:52:31;;;;;;;;;;;;;;;24.52;52.14;99599.13;7312593;19;129566;-36
2022/06/13 10:55:00;;;;;;;;;;;;;;;24.79;53.52;99598.88;7312452;19;129768;-36
2022/06/13 10:57:31;;;;;;;;;;;;;;;24.91;53.57;99594.16;7313610;19;131398;-37
2022/06/13 11:00:09;;;;;;;;;;;;;;;25.01;53.97;99592.22;7301307;19;130228;-36
2022/06/13 11:02:34;;;;;;;;;;;;;;;25.05;54.01;99580.38;7311635;19;128871;-36
2022/06/13 11:05:18;;;;;;;;;;;;;;;25.08;54.15;99572.16;7313996;19;129547;-37
2022/06/13 11:07:46;;;;;;;;;;;;;;;25.09;53.81;99565.94;7312218;19;129048;-37
2022/06/13 11:10:26;;;;;;;;;;;;;;;25.10;54.24;99568.41;7312117;19;129889;-36
2022/06/13 11:12:52;;;;;;;;;;;;;;;25.11;54.63;99585.81;7311688;19;129513;-37
2022/06/13 11:24:13;;;;;;;;;;;;;;;25.11;54.14;99564.78;7312648;19;128639;-37
2022/06/13 11:29:24;;;;;;;;;;;;;;;24.48;49.12;99564.44;7309266;19;128891;-37
2022/06/13 11:31:53;;;;;;;;;;;;;;;24.43;47.99;99564.09;7311631;19;130499;-37
2022/06/13 11:34:22;;;;;;;;;;;;;;;24.49;51.43;99573.94;7309295;19;129635;-37
2022/06/13 11:36:58;;;;;;;;;;;;;;;24.79;53.68;99574.44;7309487;19;129264;-37
2022/06/13 11:39:31;;;;;;;;;;;;;;;24.91;53.58;99559.97;7306554;19;129673;-36
2022/06/13 11:41:56;;;;;;;;;;;;;;;24.89;54.17;99559.31;7310175;19;129842;-37
2022/06/13 11:44:22;;;;;;;;;;;;;;;25.04;53.90;99568.22;7313347;19;129009;-37
2022/06/13 11:46:53;;;;;;;;;;;;;;;25.07;54.31;99578.44;7312160;19;128983;-38
2022/06/13 11:49:22;;;;;;;;;;;;;;;25.07;53.84;99573.16;7308803;19;130180;-37
2022/06/13 11:51:56;;;;;;;;;;;;;;;24.98;54.07;99547.81;7312198;19;130426;-37
2022/06/13 11:54:22;;;;;;;;;;;;;;;25.09;53.70;99571.19;7309741;19;129077;-37
2022/06/13 11:56:47;;;;;;;;;;;;;;;25.08;53.79;99564.28;7313204;19;128994;-37
2022/06/13 11:59:15;;;;;;;;;;;;;;;25.09;54.04;99571.19;7309767;19;129505;-37
2022/06/13 12:01:41;;;;;;;;;;;;;;;25.10;54.45;99567.56;7308786;19;130215;-37
2022/06/13 12:04:12;;;;;;;;;;;;;;;25.09;54.45;99576.47;7312658;19;129098;-37
2022/06/13 12:06:41;;;;;;;;;;;;;;;25.10;54.15;99573.66;7311028;19;129721;-37
2022/06/13 12:09:14;;;;;;;;;;;;;;;24.54;48.29;99575.28;7310218;19;130043;-36
2022/06/13 12:11:45;;;;;;;;;;;;;;;24.41;48.06;99570.50;7309374;19;130186;-37
2022/06/13 12:14:11;;;;;;;;;;;;;;;24.38;48.12;99574.25;7309311;19;129086;-37
2022/06/13 12:16:46;;;;;;;;;;;;;;;24.74;53.26;99576.72;7311400;19;130076;-36
2022/06/13 12:19:17;;;;;;;;;;;;;;;24.78;53.99;99576.22;7309211;19;129797;-37
2022/06/13 12:21:48;;;;;;;;;;;;;;;24.96;53.50;99587.44;7310583;19;131281;-37
2022/06/13 12:24:32;;;;;;;;;;;;;;;25.01;54.06;99600.09;7310742;19;129994;-37
2022/06/13 12:27:00;;;;;;;;;;;;;;;25.04;53.48;99607.69;7310861;19;130195;-37
2022/06/13 12:29:34;;;;;;;;;;;;;;;25.07;54.31;99599.47;7308971;19;130020;-37
2022/06/13 12:32:12;;;;;;;;;;;;;;;25.07;54.14;99602.91;7310202;19;130276;-37
2022/06/13 12:34:42;;;;;;;;;;;;;;;25.07;54.61;99616.06;7311123;19;128986;-36
2022/06/13 12:37:16;;;;;;;;;;;;;;;25.08;54.58;99612.47;7312133;19;129035;-36
2022/06/13 12:39:48;;;;;;;;;;;;;;;25.08;54.06;99609.81;7308701;19;129439;-37
2022/06/13 12:42:32;;;;;;;;;;;;;;;25.02;54.59;99596.50;7310323;19;129373;-36
2022/06/13 12:45:16;;;;;;;;;;;;;;;25.08;54.38;99609.00;7316845;19;131208;-37
2022/06/13 12:48:00;;;;;;;;;;;;;;;25.08;54.53;99611.63;7316872;19;129140;-36
2022/06/13 12:50:34;;;;;;;;;;;;;;;24.33;48.83;99607.22;7315448;19;130871;-37
2022/06/13 12:53:35;;;;;;;;;;;;;;;24.36;47.62;99613.00;7315724;19;129772;-36
2022/06/13 12:56:24;;;;;;;;;;;;;;;24.58;53.68;99621.31;7312822;19;129606;-37
2022/06/13 12:59:01;;;;;;;;;;;;;;;24.81;53.65;99609.28;7315153;19;129324;-37
2022/06/13 13:01:31;;;;;;;;;;;;;;;24.93;53.69;99607.97;7316059;19;130081;-37
2022/06/13 13:03:56;;;;;;;;;;;;;;;24.98;53.86;99616.22;7316566;19;129218;-36
2022/06/13 13:06:36;;;;;;;;;;;;;;;25.02;53.50;99618.38;7317106;19;129741;-37
2022/06/13 13:09:04;;;;;;;;;;;;;;;25.06;54.25;99608.31;7313022;19;131046;-37
2022/06/13 13:11:37;;;;;;;;;;;;;;;25.06;53.86;99608.31;7317800;19;130081;-37
2022/06/13 13:14:05;;;;;;;;;;;;;;;25.07;53.72;99610.00;7315039;19;129564;-36
2022/06/13 13:16:34;;;;;;;;;;;;;;;25.08;54.09;99614.25;7317084;19;129292;-37